Hechi, China
Current Conditions -  °F | °C
As of 1:00 PM on Sunday 26 Oct 2014 (Local Time) from ZGKL Reporting Station
Haze Haze  
Wind Chill: 86°   Ceiling: Unl
Heat Index: 87°   Visibility: 3mi
Dew Point: 64°   Wind: 7mph
Humidity: 48%   Direction: 150°SSE
Pressure: 30.03"   Gusts: NA
Location:  24.7°N, 108.05°E
Report Text: ZGKL 260500Z 15003MPS 080V200 5000 HZ NSC 30/18 Q1017 NOSIG
Loading
Personal Weather Stations






























Interactive Weather Map
Tropical Storm Tracking
New forecast layout! Learn more

10-Day Weather Forecast

Advertisements
Track Severe Weather on mobile